createdAt,value
2023-05-09T00:00:47.955Z,0.50
2023-05-09T00:03:14.718Z,0.70
2023-05-09T00:05:41.894Z,0.40
2023-05-09T00:08:08.735Z,0.50
2023-05-09T00:10:35.675Z,0.68
2023-05-09T00:13:02.459Z,0.60
2023-05-09T00:15:29.386Z,0.70
2023-05-09T00:17:56.159Z,1.02
2023-05-09T00:20:23.003Z,0.70
2023-05-09T00:22:49.727Z,0.82
2023-05-09T00:25:16.632Z,0.30
2023-05-09T00:27:43.495Z,0.30
2023-05-09T00:30:10.397Z,0.60
2023-05-09T00:35:19.468Z,0.40
2023-05-09T00:37:46.137Z,0.55
2023-05-09T00:40:13.014Z,1.42
2023-05-09T00:42:39.690Z,0.30
2023-05-09T00:45:07.442Z,0.40
2023-05-09T00:47:34.532Z,0.40
2023-05-09T00:50:01.583Z,0.50
2023-05-09T00:52:28.505Z,0.40
2023-05-09T00:54:55.786Z,0.20
2023-05-09T00:57:23.025Z,0.40
2023-05-09T00:59:49.884Z,0.47
2023-05-09T01:02:17.797Z,0.50
2023-05-09T01:04:45.760Z,0.30
2023-05-09T01:07:15.209Z,0.32
2023-05-09T01:09:51.638Z,0.40
2023-05-09T01:12:33.396Z,0.45
2023-05-09T01:15:06.125Z,0.30
2023-05-09T01:17:35.632Z,0.13
2023-05-09T01:20:11.119Z,0.20
2023-05-09T01:22:39.930Z,0.17
2023-05-09T01:25:44.084Z,0.70
2023-05-09T01:28:33.359Z,0.35
2023-05-09T01:31:00.137Z,0.30
2023-05-09T01:33:27.158Z,0.50
2023-05-09T01:35:57.849Z,0.50
2023-05-09T01:38:24.745Z,0.50
2023-05-09T01:40:53.511Z,0.90
2023-05-09T01:43:20.848Z,0.50
2023-05-09T01:45:48.209Z,0.40
2023-05-09T01:48:14.903Z,0.40
2023-05-09T01:50:41.600Z,0.40
2023-05-09T01:53:08.274Z,0.25
2023-05-09T01:55:36.054Z,0.45
2023-05-09T01:58:04.231Z,0.50
2023-05-09T02:00:32.364Z,0.40
2023-05-09T02:02:59.136Z,0.40
2023-05-09T02:05:29.405Z,0.68
2023-05-09T02:07:59.267Z,0.22
2023-05-09T02:10:27.577Z,0.25
2023-05-09T02:12:54.730Z,0.90
2023-05-09T02:15:21.767Z,0.30
2023-05-09T02:17:48.463Z,0.35
2023-05-09T02:20:15.243Z,0.68
2023-05-09T02:22:42.435Z,0.40
2023-05-09T02:25:10.802Z,0.65
2023-05-09T02:27:38.628Z,0.70
2023-05-09T02:30:08.772Z,0.40
2023-05-09T02:32:35.813Z,0.60
2023-05-09T02:35:04.043Z,0.32
2023-05-09T02:37:31.058Z,0.43
2023-05-09T02:39:57.827Z,0.30
2023-05-09T02:42:25.419Z,0.50
2023-05-09T02:44:55.427Z,0.40
2023-05-09T02:47:22.269Z,0.50
2023-05-09T02:49:48.953Z,0.40
2023-05-09T02:52:15.710Z,0.30
2023-05-09T02:54:42.394Z,0.43
2023-05-09T02:57:09.069Z,0.40
2023-05-09T02:59:35.775Z,0.40
2023-05-09T03:02:02.596Z,0.85
2023-05-09T03:04:29.278Z,0.40
2023-05-09T03:06:56.204Z,0.40
2023-05-09T03:09:22.849Z,0.60
2023-05-09T03:11:50.274Z,0.50
2023-05-09T03:14:17.065Z,0.57
2023-05-09T03:16:43.874Z,0.52
2023-05-09T03:19:10.623Z,0.50
2023-05-09T03:21:37.376Z,0.40
2023-05-09T03:24:04.755Z,0.50
2023-05-09T03:26:31.507Z,0.70
2023-05-09T03:28:58.637Z,0.60
2023-05-09T03:31:25.506Z,0.60
2023-05-09T03:33:52.223Z,0.65
2023-05-09T03:36:18.941Z,0.43
2023-05-09T03:38:45.613Z,0.60
2023-05-09T03:41:13.221Z,0.40
2023-05-09T03:43:39.919Z,0.50
2023-05-09T03:46:06.608Z,0.40
2023-05-09T03:48:33.294Z,0.40
2023-05-09T03:50:59.978Z,0.30
2023-05-09T03:53:26.813Z,0.38
2023-05-09T03:55:53.501Z,0.50
2023-05-09T03:58:20.588Z,0.38
2023-05-09T04:00:47.277Z,0.35
2023-05-09T04:03:13.974Z,0.50
2023-05-09T04:05:40.881Z,0.57
2023-05-09T04:08:07.755Z,0.45
2023-05-09T04:10:34.449Z,0.88
2023-05-09T04:13:01.276Z,0.60
2023-05-09T04:15:28.037Z,0.60
2023-05-09T04:17:54.715Z,0.47
2023-05-09T04:20:21.590Z,1.30
2023-05-09T04:22:48.345Z,0.95
2023-05-09T04:25:15.996Z,0.60
2023-05-09T04:27:42.925Z,0.98
2023-05-09T04:30:10.824Z,0.88
2023-05-09T04:32:38.662Z,1.00
2023-05-09T04:35:06.553Z,1.05
2023-05-09T04:37:33.236Z,1.13
2023-05-09T04:39:59.991Z,1.08
2023-05-09T04:42:26.694Z,1.48
2023-05-09T04:44:53.352Z,1.20
2023-05-09T04:47:20.032Z,1.42
2023-05-09T04:49:46.723Z,1.75
2023-05-09T04:52:13.433Z,1.90
2023-05-09T04:54:40.238Z,1.75
2023-05-09T04:57:17.091Z,2.03
2023-05-09T04:59:44.358Z,1.58
2023-05-09T05:02:10.969Z,2.28
2023-05-09T05:04:37.673Z,2.20
2023-05-09T05:07:05.187Z,1.90
2023-05-09T05:09:31.915Z,2.50
2023-05-09T05:12:02.413Z,2.55
2023-05-09T05:14:30.902Z,2.25
2023-05-09T05:16:57.559Z,2.72
2023-05-09T05:19:24.236Z,3.20
2023-05-09T05:21:50.922Z,2.90
2023-05-09T05:24:17.580Z,2.88
2023-05-09T05:26:44.341Z,3.10
2023-05-09T05:29:11.120Z,3.80
2023-05-09T05:31:37.815Z,3.40
2023-05-09T05:34:04.540Z,3.53
2023-05-09T05:36:32.139Z,3.25
2023-05-09T05:38:58.923Z,3.38
2023-05-09T05:41:26.215Z,3.55
2023-05-09T05:43:54.265Z,3.17
2023-05-09T05:46:21.293Z,3.35
2023-05-09T05:48:48.119Z,5.05
2023-05-09T05:51:14.813Z,3.92
2023-05-09T05:53:41.581Z,4.03
2023-05-09T05:56:08.295Z,4.07
2023-05-09T05:58:35.026Z,3.75
2023-05-09T06:01:02.363Z,3.42
2023-05-09T06:03:32.489Z,4.55
2023-05-09T06:05:59.407Z,4.13
2023-05-09T06:08:26.113Z,4.55
2023-05-09T06:10:52.846Z,4.50
2023-05-09T06:13:19.619Z,4.32
2023-05-09T06:15:46.423Z,4.03
2023-05-09T06:18:13.181Z,4.22
2023-05-09T06:20:39.952Z,4.32
2023-05-09T06:23:06.901Z,4.40
2023-05-09T06:25:33.650Z,4.43
2023-05-09T06:28:00.617Z,4.43
2023-05-09T06:30:27.397Z,4.72
2023-05-09T06:32:58.345Z,4.53
2023-05-09T06:35:25.158Z,4.10
2023-05-09T06:37:51.824Z,5.00
2023-05-09T06:40:18.626Z,3.92
2023-05-09T06:42:45.538Z,4.97
2023-05-09T06:45:12.761Z,5.30
2023-05-09T06:47:39.675Z,3.80
2023-05-09T06:50:07.097Z,3.88
2023-05-09T06:52:33.785Z,4.93
2023-05-09T06:55:00.487Z,4.63
2023-05-09T06:57:27.232Z,3.42
2023-05-09T06:59:53.920Z,4.47
2023-05-09T07:02:20.665Z,4.20
2023-05-09T07:04:47.540Z,4.25
2023-05-09T07:07:17.357Z,4.25
2023-05-09T07:09:44.109Z,4.35
2023-05-09T07:12:10.773Z,5.10
2023-05-09T07:14:38.833Z,4.88
2023-05-09T07:17:21.148Z,3.75
2023-05-09T07:19:50.109Z,4.65
2023-05-09T07:22:17.179Z,4.57
2023-05-09T07:24:49.141Z,4.03
2023-05-09T07:27:16.046Z,4.75
2023-05-09T07:29:42.805Z,4.15
2023-05-09T07:32:09.768Z,4.47
2023-05-09T07:34:36.618Z,3.88
2023-05-09T07:37:03.784Z,4.28
2023-05-09T07:39:30.741Z,3.60
2023-05-09T07:41:57.500Z,4.00
2023-05-09T07:44:24.267Z,4.20
2023-05-09T07:46:51.025Z,5.30
2023-05-09T07:49:18.038Z,4.20
2023-05-09T07:51:44.747Z,4.38
2023-05-09T07:54:11.574Z,4.15
2023-05-09T07:56:38.245Z,3.75
2023-05-09T07:59:04.938Z,3.25
2023-05-09T08:01:31.770Z,4.55
2023-05-09T08:03:58.511Z,3.53
2023-05-09T08:06:26.226Z,3.65
2023-05-09T08:08:52.954Z,3.40
2023-05-09T08:11:19.616Z,3.50
2023-05-09T08:13:46.917Z,3.50
2023-05-09T08:16:13.985Z,6.47
2023-05-09T08:18:40.721Z,3.63
2023-05-09T08:21:07.398Z,3.28
2023-05-09T08:23:34.182Z,3.83
2023-05-09T08:26:01.042Z,2.53
2023-05-09T08:28:28.644Z,2.63
2023-05-09T08:30:56.829Z,2.60
2023-05-09T08:33:24.635Z,2.55
2023-05-09T08:35:52.085Z,2.92
2023-05-09T08:38:19.021Z,2.38
2023-05-09T08:40:45.842Z,2.80
2023-05-09T08:43:12.877Z,2.38
2023-05-09T08:45:45.321Z,2.42
2023-05-09T08:48:11.969Z,3.33
2023-05-09T08:50:40.302Z,2.20
2023-05-09T08:53:07.017Z,2.15
2023-05-09T08:55:33.701Z,3.25
2023-05-09T08:58:00.443Z,2.20
2023-05-09T09:00:27.241Z,2.70
2023-05-09T09:02:54.489Z,2.28
2023-05-09T09:05:40.120Z,2.08
2023-05-09T09:08:08.499Z,2.17
2023-05-09T09:10:35.412Z,2.13
2023-05-09T09:13:05.101Z,1.90
2023-05-09T09:15:38.864Z,1.58
2023-05-09T09:20:52.314Z,1.92
2023-05-09T09:23:20.453Z,1.42
2023-05-09T09:25:47.732Z,2.13
2023-05-09T09:28:14.736Z,1.67
2023-05-09T09:30:45.812Z,2.60
2023-05-09T09:33:19.541Z,2.25
2023-05-09T09:38:12.983Z,2.28
2023-05-09T09:40:40.656Z,1.90
2023-05-09T09:43:07.990Z,2.00
2023-05-09T09:45:34.750Z,2.40
2023-05-09T09:48:01.523Z,2.40
2023-05-09T09:50:28.475Z,2.05
2023-05-09T09:52:56.481Z,2.00
2023-05-09T09:55:24.301Z,2.30
2023-05-09T09:57:51.285Z,1.75
2023-05-09T10:00:19.835Z,1.60
2023-05-09T10:02:50.655Z,1.60
2023-05-09T10:05:24.066Z,1.67
2023-05-09T10:07:58.879Z,1.75
2023-05-09T10:10:32.860Z,1.67
2023-05-09T10:13:04.360Z,1.55
2023-05-09T10:15:41.370Z,1.50
2023-05-09T10:18:12.408Z,1.50
2023-05-09T10:20:40.827Z,1.70
2023-05-09T10:23:07.512Z,1.55
2023-05-09T10:25:43.713Z,2.17
2023-05-09T10:28:15.126Z,1.83
2023-05-09T10:30:52.352Z,1.70
2023-05-09T10:33:21.628Z,1.30
2023-05-09T10:35:48.330Z,1.48
2023-05-09T10:38:15.179Z,1.77
2023-05-09T10:40:42.084Z,1.40
2023-05-09T10:43:08.846Z,1.50
2023-05-09T10:45:35.592Z,1.60
2023-05-09T10:48:04.002Z,1.48
2023-05-09T10:50:30.922Z,1.35
2023-05-09T10:53:03.923Z,1.90
2023-05-09T10:55:59.010Z,1.60
2023-05-09T10:58:33.448Z,2.40
2023-05-09T11:01:01.333Z,1.70
2023-05-09T11:03:29.240Z,1.27
2023-05-09T11:05:56.944Z,1.33
2023-05-09T11:08:30.597Z,1.92
2023-05-09T11:13:25.631Z,1.17
2023-05-09T11:16:01.816Z,2.50
2023-05-09T11:18:29.132Z,2.10
2023-05-09T11:20:56.193Z,1.55
2023-05-09T11:23:26.814Z,1.98
2023-05-09T11:25:53.775Z,1.90
2023-05-09T11:28:33.818Z,1.20
2023-05-09T11:31:10.451Z,1.50
2023-05-09T11:33:37.439Z,1.83
2023-05-09T11:36:29.769Z,1.58
2023-05-09T11:39:06.775Z,2.78
2023-05-09T11:41:43.840Z,2.00
2023-05-09T11:44:18.044Z,1.90
2023-05-09T11:46:45.889Z,2.00
2023-05-09T11:49:12.774Z,1.55
2023-05-09T11:51:39.703Z,2.20
2023-05-09T11:54:07.362Z,1.65
2023-05-09T11:56:38.735Z,1.60
2023-05-09T11:59:05.409Z,1.75
2023-05-09T12:01:32.214Z,1.50
2023-05-09T12:04:01.421Z,2.53
2023-05-09T12:06:29.901Z,1.80
2023-05-09T12:08:59.636Z,2.00
2023-05-09T12:11:26.474Z,2.20
2023-05-09T12:13:53.489Z,2.03
2023-05-09T12:16:21.805Z,2.70
2023-05-09T12:18:52.617Z,1.90
2023-05-09T12:21:19.713Z,2.75
2023-05-09T12:23:48.946Z,2.67
2023-05-09T12:26:17.603Z,1.80
2023-05-09T12:28:44.341Z,1.73
2023-05-09T12:31:11.100Z,3.03
2023-05-09T12:33:38.762Z,1.80
2023-05-09T12:36:11.219Z,2.55
2023-05-09T12:38:38.506Z,2.20
2023-05-09T12:41:06.695Z,2.40
2023-05-09T12:43:35.656Z,2.03
2023-05-09T12:46:02.695Z,2.30
2023-05-09T12:48:30.272Z,2.20
2023-05-09T12:50:57.047Z,2.13
2023-05-09T12:53:25.439Z,2.33
2023-05-09T12:55:56.408Z,2.00
2023-05-09T12:58:23.114Z,2.75
2023-05-09T13:00:49.922Z,2.60
2023-05-09T13:03:21.333Z,3.40
2023-05-09T13:06:00.517Z,2.67
2023-05-09T13:08:27.719Z,2.20
2023-05-09T13:11:03.967Z,3.15
2023-05-09T13:13:41.297Z,2.58
2023-05-09T13:16:10.081Z,2.65
2023-05-09T13:18:37.740Z,2.67
2023-05-09T13:21:04.460Z,2.83
2023-05-09T13:23:31.180Z,2.33
2023-05-09T13:25:57.841Z,2.10
2023-05-09T13:28:24.559Z,2.63
2023-05-09T13:30:51.313Z,3.00
2023-05-09T13:33:25.875Z,2.33
2023-05-09T13:35:53.400Z,2.25
2023-05-09T13:38:20.098Z,2.05
2023-05-09T13:40:46.954Z,3.08
2023-05-09T13:43:13.655Z,2.97
2023-05-09T13:45:40.516Z,2.47
2023-05-09T13:48:07.216Z,2.75
2023-05-09T13:50:34.286Z,2.33
2023-05-09T13:53:01.051Z,3.30
2023-05-09T13:55:27.870Z,3.15
2023-05-09T13:57:54.951Z,2.95
2023-05-09T14:00:22.264Z,3.00
2023-05-09T14:02:49.342Z,3.17
2023-05-09T14:05:16.935Z,2.92
2023-05-09T14:07:43.961Z,2.10
2023-05-09T14:10:12.300Z,3.97
2023-05-09T14:12:40.063Z,3.13
2023-05-09T14:15:07.962Z,2.13
2023-05-09T14:17:34.938Z,2.28
2023-05-09T14:20:01.813Z,1.92
2023-05-09T14:22:28.498Z,2.25
2023-05-09T14:24:57.382Z,2.67
2023-05-09T14:27:25.112Z,2.50
2023-05-09T14:29:58.359Z,2.45
2023-05-09T14:32:25.435Z,1.98
2023-05-09T14:34:52.223Z,1.98
2023-05-09T14:37:18.951Z,2.67
2023-05-09T14:39:46.790Z,3.22
2023-05-09T14:42:14.245Z,1.80
2023-05-09T14:44:41.531Z,2.30
2023-05-09T14:47:09.235Z,2.33
2023-05-09T14:49:36.916Z,2.22
2023-05-09T14:52:03.671Z,2.42
2023-05-09T14:54:30.390Z,2.17
2023-05-09T14:56:59.374Z,2.40
2023-05-09T14:59:26.306Z,1.80
2023-05-09T15:01:53.720Z,2.30
2023-05-09T15:04:20.591Z,2.00
2023-05-09T15:06:47.348Z,2.38
2023-05-09T15:09:14.703Z,1.92
2023-05-09T15:11:48.364Z,2.75
2023-05-09T15:14:16.695Z,2.53
2023-05-09T15:16:43.959Z,1.90
2023-05-09T15:19:10.888Z,2.10
2023-05-09T15:21:37.654Z,1.92
2023-05-09T15:24:05.121Z,1.55
2023-05-09T15:26:32.085Z,3.13
2023-05-09T15:28:58.956Z,2.00
2023-05-09T15:31:25.891Z,2.20
2023-05-09T15:33:52.780Z,2.20
2023-05-09T15:36:19.474Z,2.00
2023-05-09T15:38:49.539Z,1.70
2023-05-09T15:41:16.759Z,2.53
2023-05-09T15:43:43.602Z,2.30
2023-05-09T15:46:10.526Z,2.67
2023-05-09T15:48:37.302Z,2.13
2023-05-09T15:51:04.210Z,2.50
2023-05-09T15:53:31.222Z,2.53
2023-05-09T15:55:58.194Z,2.53
2023-05-09T15:58:25.023Z,1.77
2023-05-09T16:00:51.805Z,2.25
2023-05-09T16:03:18.954Z,2.47
2023-05-09T16:05:45.758Z,1.85
2023-05-09T16:08:12.542Z,1.77
2023-05-09T16:10:39.297Z,2.53
2023-05-09T16:13:06.694Z,1.71
2023-05-09T16:15:33.897Z,1.70
2023-05-09T16:18:00.683Z,1.77
2023-05-09T16:20:27.360Z,2.25
2023-05-09T16:22:54.027Z,1.60
2023-05-09T16:25:35.496Z,1.77
2023-05-09T16:28:02.505Z,1.52
2023-05-09T16:30:29.503Z,1.58
2023-05-09T16:32:56.442Z,1.80
2023-05-09T16:35:23.244Z,1.77
2023-05-09T16:37:49.949Z,2.45
2023-05-09T16:40:17.283Z,1.75
2023-05-09T16:42:44.249Z,1.75
2023-05-09T16:45:11.457Z,2.45
2023-05-09T16:47:38.230Z,2.78
2023-05-09T16:50:05.437Z,3.33
2023-05-09T16:52:32.276Z,1.90
2023-05-09T16:54:59.477Z,1.75
2023-05-09T16:57:26.356Z,1.55
2023-05-09T16:59:53.867Z,1.95
2023-05-09T17:02:20.588Z,1.48
2023-05-09T17:04:47.665Z,1.30
2023-05-09T17:07:14.545Z,1.75
2023-05-09T17:09:41.418Z,1.90
2023-05-09T17:12:10.818Z,1.52
2023-05-09T17:14:37.591Z,1.50
2023-05-09T17:17:07.036Z,1.50
2023-05-09T17:19:34.852Z,1.63
2023-05-09T17:22:04.456Z,1.40
2023-05-09T17:24:32.274Z,1.30
2023-05-09T17:26:59.339Z,1.60
2023-05-09T17:29:29.044Z,1.45
2023-05-09T17:32:02.228Z,1.60
2023-05-09T17:34:29.229Z,2.30
2023-05-09T17:36:56.252Z,2.28
2023-05-09T17:39:23.394Z,2.15
2023-05-09T17:41:50.206Z,1.90
2023-05-09T17:44:16.958Z,1.67
2023-05-09T17:46:44.178Z,2.20
2023-05-09T17:49:13.941Z,2.25
2023-05-09T17:51:40.964Z,1.77
2023-05-09T17:54:07.755Z,2.33
2023-05-09T17:56:34.589Z,1.80
2023-05-09T17:59:01.566Z,1.90
2023-05-09T18:01:28.532Z,2.22
2023-05-09T18:03:55.470Z,1.60
2023-05-09T18:06:22.293Z,1.13
2023-05-09T18:08:49.227Z,0.90
2023-05-09T18:11:16.302Z,1.65
2023-05-09T18:13:43.007Z,1.00
2023-05-09T18:16:09.882Z,1.20
2023-05-09T18:18:36.861Z,1.15
2023-05-09T18:21:05.344Z,1.27
2023-05-09T18:23:32.159Z,1.10
2023-05-09T18:25:59.139Z,1.25
2023-05-09T18:28:25.959Z,0.98
2023-05-09T18:30:59.819Z,1.30
2023-05-09T18:33:27.454Z,2.90
2023-05-09T18:35:55.114Z,2.63
2023-05-09T18:38:22.574Z,2.28
2023-05-09T18:40:51.703Z,1.40
2023-05-09T18:43:20.625Z,1.50
2023-05-09T18:45:48.111Z,2.35
2023-05-09T18:48:18.009Z,1.42
2023-05-09T18:50:44.801Z,1.60
2023-05-09T18:53:11.690Z,1.70
2023-05-09T18:55:38.852Z,1.63
2023-05-09T18:58:06.336Z,1.15
2023-05-09T19:00:34.769Z,1.70
2023-05-09T19:03:01.670Z,1.92
2023-05-09T19:05:28.463Z,1.88
2023-05-09T19:07:55.130Z,2.58
2023-05-09T19:10:21.857Z,1.17
2023-05-09T19:12:49.210Z,2.00
2023-05-09T19:15:16.051Z,1.58
2023-05-09T19:17:43.163Z,2.63
2023-05-09T19:20:10.773Z,2.20
2023-05-09T19:22:37.552Z,2.65
2023-05-09T19:25:04.387Z,2.47
2023-05-09T19:27:31.121Z,2.05
2023-05-09T19:29:59.333Z,2.08
2023-05-09T19:32:26.065Z,2.10
2023-05-09T19:34:52.816Z,2.33
2023-05-09T19:37:19.491Z,2.58
2023-05-09T19:39:46.183Z,2.42
2023-05-09T19:42:13.011Z,1.80
2023-05-09T19:44:40.487Z,2.13
2023-05-09T19:47:08.945Z,2.13
2023-05-09T19:49:35.671Z,1.65
2023-05-09T19:52:02.520Z,2.13
2023-05-09T19:54:30.351Z,1.85
2023-05-09T19:56:57.088Z,2.40
2023-05-09T19:59:23.798Z,2.65
2023-05-09T20:01:50.784Z,2.20
2023-05-09T20:04:21.616Z,2.15
2023-05-09T20:06:48.700Z,2.63
2023-05-09T20:09:20.855Z,1.98
2023-05-09T20:11:48.219Z,2.22
2023-05-09T20:14:15.029Z,1.88
2023-05-09T20:16:42.499Z,2.10
2023-05-09T20:19:09.759Z,1.98
2023-05-09T20:21:36.559Z,2.30
2023-05-09T20:24:03.451Z,2.25
2023-05-09T20:26:30.375Z,3.13
2023-05-09T20:29:01.498Z,1.92
2023-05-09T20:31:29.118Z,3.85
2023-05-09T20:33:57.500Z,3.53
2023-05-09T20:36:24.892Z,2.97
2023-05-09T20:38:51.644Z,2.95
2023-05-09T20:41:18.423Z,2.22
2023-05-09T20:43:45.114Z,3.15
2023-05-09T20:46:11.982Z,3.40
2023-05-09T20:48:38.836Z,2.97
2023-05-09T20:51:05.660Z,4.43
2023-05-09T20:53:34.837Z,6.65
2023-05-09T20:56:01.900Z,3.90
2023-05-09T20:58:32.245Z,3.50
2023-05-09T21:00:59.025Z,2.53
2023-05-09T21:03:25.868Z,2.83
2023-05-09T21:05:53.295Z,2.70
2023-05-09T21:08:20.011Z,2.42
2023-05-09T21:10:46.762Z,2.42
2023-05-09T21:13:13.535Z,3.72
2023-05-09T21:15:40.337Z,3.45
2023-05-09T21:18:07.233Z,3.13
2023-05-09T21:20:33.988Z,3.45
2023-05-09T21:23:00.694Z,3.17
2023-05-09T21:25:27.406Z,3.35
2023-05-09T21:27:54.082Z,3.20
2023-05-09T21:30:20.845Z,3.33
2023-05-09T21:32:47.725Z,3.60
2023-05-09T21:35:15.370Z,3.88
2023-05-09T21:37:42.059Z,3.70
2023-05-09T21:40:09.580Z,3.90
2023-05-09T21:42:37.404Z,3.53
2023-05-09T21:45:04.548Z,3.33
2023-05-09T21:47:31.460Z,3.60
2023-05-09T21:49:58.380Z,2.40
2023-05-09T21:52:25.184Z,2.95
2023-05-09T21:54:51.886Z,3.08
2023-05-09T21:57:18.543Z,3.10
2023-05-09T21:59:45.271Z,2.10
2023-05-09T22:02:12.015Z,2.47
2023-05-09T22:04:40.211Z,1.83
2023-05-09T22:07:07.599Z,2.30
2023-05-09T22:09:35.075Z,2.35
2023-05-09T22:12:01.827Z,2.60
2023-05-09T22:14:28.551Z,2.53
2023-05-09T22:16:55.328Z,3.47
2023-05-09T22:19:22.053Z,2.83
2023-05-09T22:21:49.127Z,2.17
2023-05-09T22:24:16.230Z,2.17
2023-05-09T22:26:43.061Z,1.85
2023-05-09T22:29:09.846Z,1.95
2023-05-09T22:31:36.745Z,2.00
2023-05-09T22:34:03.740Z,2.67
2023-05-09T22:36:30.421Z,2.13
2023-05-09T22:38:57.104Z,3.00
2023-05-09T22:41:23.781Z,2.25
2023-05-09T22:43:50.930Z,2.47
2023-05-09T22:46:17.639Z,3.03
2023-05-09T22:48:44.411Z,2.83
2023-05-09T22:51:11.746Z,2.60
2023-05-09T22:53:38.474Z,3.80
2023-05-09T22:56:05.476Z,3.33
2023-05-09T22:58:32.202Z,3.70
2023-05-09T23:00:58.987Z,3.88
2023-05-09T23:03:25.972Z,3.50
2023-05-09T23:05:52.838Z,3.45
2023-05-09T23:08:19.481Z,3.85
2023-05-09T23:10:46.284Z,3.30
2023-05-09T23:13:13.089Z,3.80
2023-05-09T23:15:39.811Z,3.95
2023-05-09T23:18:07.042Z,4.07
2023-05-09T23:20:33.754Z,3.30
2023-05-09T23:23:00.480Z,3.72
2023-05-09T23:25:27.294Z,3.88
2023-05-09T23:27:54.558Z,3.72
2023-05-09T23:30:21.279Z,3.28
2023-05-09T23:32:47.953Z,3.80
2023-05-09T23:35:14.861Z,3.15
2023-05-09T23:37:41.504Z,3.38
2023-05-09T23:40:08.690Z,2.63
2023-05-09T23:42:35.353Z,2.92
2023-05-09T23:45:02.338Z,2.50
2023-05-09T23:47:29.016Z,2.80
2023-05-09T23:49:55.692Z,2.42
2023-05-09T23:52:23.370Z,2.30
2023-05-09T23:54:50.110Z,2.20
2023-05-09T23:57:16.809Z,1.90
2023-05-09T23:59:43.531Z,2.30
